Tracy, Missouri
Current Conditions -  °F | °C
As of 11:53 PM on Saturday 22 Nov 2014 (Local Time) from KMCI Reporting Station
Overcast Overcast  
Wind Chill: 55°   Ceiling: 1200
Heat Index: 55°   Visibility: 10mi
Dew Point: 51°   Wind: 15mph
Humidity: 86%   Direction: 190°S
Pressure: 29.67"   Gusts: 28mph
Location:  39.3588°N, 94.8136°W
Report Text: KMCI 230553Z 19013G24KT 10SM OVC012 13/11 A2967 RMK AO2 SLP045 T01280106 10133 20122 401440100 58014
Loading
Personal Weather Stations






























Interactive Weather Map New forecast layout! Learn more

10-Day Weather Forecast

Advertisements
Track Severe Weather on mobile